Time;durP1;ratioP1;P1;durP2;ratioP2;P2;SDS_P1;SDS_P2;PMS_P1;PMS_P2;Temp;Humidity;BMP_temperature;BMP_pressure;BME280_temperature;BME280_humidity;BME280_pressure;Samples;Min_cycle;Max_cycle;Signal;HPM_P1;HPM_P2
2022/01/23 00:01:23;;;;;;;9.90;7.10;;;4.90;99.90;;;;;;5052014;28;20693;-75
2022/01/23 00:03:49;;;;;;;7.63;6.93;;;4.90;99.90;;;;;;5051724;28;20177;-75
2022/01/23 00:06:14;;;;;;;8.57;5.60;;;4.90;99.90;;;;;;5051906;28;20687;-75
2022/01/23 00:08:40;;;;;;;14.77;9.33;;;4.90;99.90;;;;;;5052055;28;20207;-76
2022/01/23 00:11:07;;;;;;;8.20;5.83;;;4.90;99.90;;;;;;5052289;28;20255;-76
2022/01/23 00:19:00;;;;;;;7.73;7.30;;;4.90;99.90;;;;;;5052073;28;20203;-76
2022/01/23 00:21:26;;;;;;;7.33;5.60;;;4.90;99.90;;;;;;5033584;28;20181;-76
2022/01/23 00:31:45;;;;;;;7.30;6.47;;;4.80;99.90;;;;;;5051362;28;20218;-76
2022/01/23 00:34:11;;;;;;;7.33;6.37;;;4.80;99.90;;;;;;5051938;28;20552;-76
2022/01/23 00:36:36;;;;;;;8.43;7.77;;;4.80;99.90;;;;;;5051704;28;20931;-76
2022/01/23 00:39:03;;;;;;;6.17;5.30;;;4.90;99.90;;;;;;5033649;28;20651;-76
2022/01/23 00:41:29;;;;;;;10.67;7.57;;;4.90;99.90;;;;;;5051520;28;20185;-76
2022/01/23 00:43:55;;;;;;;3.87;3.47;;;4.90;99.90;;;;;;5051644;28;20268;-76
2022/01/23 00:51:35;;;;;;;20.87;5.27;;;4.90;99.90;;;;;;5051143;28;20173;-75
2022/01/23 00:54:03;;;;;;;22.87;8.27;;;4.90;99.90;;;;;;5033773;28;20181;-75
2022/01/23 00:56:29;;;;;;;7.03;6.53;;;5.00;99.90;;;;;;5051305;28;20189;-75
2022/01/23 00:58:54;;;;;;;8.70;7.73;;;4.90;99.90;;;;;;5051290;28;20863;-75
2022/01/23 01:01:20;;;;;;;8.27;5.73;;;4.90;99.90;;;;;;5033198;28;20184;-74
2022/01/23 01:03:47;;;;;;;8.07;7.10;;;4.90;99.90;;;;;;5051359;28;20259;-75
2022/01/23 01:06:13;;;;;;;11.87;8.47;;;4.90;99.90;;;;;;5046410;28;20204;-74
2022/01/23 01:08:39;;;;;;;27.07;5.30;;;4.90;99.90;;;;;;5051250;28;20226;-74
2022/01/23 01:13:55;;;;;;;14.50;6.03;;;4.90;99.90;;;;;;5050867;28;20208;-74
2022/01/23 01:30:18;;;;;;;10.77;7.73;;;4.90;99.90;;;;;;5051180;28;20772;-75
2022/01/23 01:33:10;;;;;;;13.70;10.53;;;4.80;99.90;;;;;;5051105;28;20513;-75
2022/01/23 01:35:50;;;;;;;13.67;7.37;;;4.80;99.90;;;;;;5050990;28;20205;-75
2022/01/23 01:38:15;;;;;;;8.00;7.37;;;4.80;99.90;;;;;;5050901;28;20180;-75
2022/01/23 01:40:41;;;;;;;5.23;4.80;;;4.80;99.90;;;;;;5051939;28;20177;-75
2022/01/23 01:43:06;;;;;;;9.70;8.90;;;4.80;99.90;;;;;;5036861;28;20180;-75
2022/01/23 01:45:34;;;;;;;9.53;7.00;;;4.80;99.90;;;;;;5054913;28;20201;-76
2022/01/23 01:48:01;;;;;;;6.60;5.93;;;4.80;99.90;;;;;;5054733;28;20411;-76
2022/01/23 01:50:29;;;;;;;4.83;4.53;;;4.80;99.90;;;;;;5036914;28;20179;-76
2022/01/23 01:52:54;;;;;;;7.60;5.33;;;4.80;99.90;;;;;;5054819;28;20181;-76
2022/01/23 01:55:31;;;;;;;4.70;4.30;;;4.80;99.90;;;;;;5036880;28;20629;-76
2022/01/23 01:58:02;;;;;;;10.13;5.77;;;4.80;99.90;;;;;;5036859;28;20188;-76
2022/01/23 02:00:43;;;;;;;5.37;4.97;;;4.70;99.90;;;;;;5035863;28;20189;-75
2022/01/23 02:08:38;;;;;;;5.50;5.17;;;4.80;99.90;;;;;;5054200;28;20183;-74
2022/01/23 02:17:12;;;;;;;4.77;4.10;;;4.80;99.90;;;;;;5054500;28;20642;-75
2022/01/23 02:25:15;;;;;;;6.23;5.80;;;4.80;99.90;;;;;;5054822;28;20217;-74
2022/01/23 02:52:45;;;;;;;9.63;4.80;;;4.80;99.90;;;;;;5053642;28;20204;-74
2022/01/23 02:55:21;;;;;;;9.00;8.13;;;4.80;99.90;;;;;;5054463;28;20208;-75
2022/01/23 03:00:16;;;;;;;4.90;4.47;;;4.80;99.90;;;;;;5054938;28;20255;-74
2022/01/23 03:02:47;;;;;;;6.83;6.17;;;4.70;99.90;;;;;;5055581;28;20177;-74
2022/01/23 03:05:24;;;;;;;7.50;4.80;;;4.80;99.90;;;;;;5054119;28;20702;-75
2022/01/23 03:08:21;;;;;;;4.53;4.13;;;4.80;99.90;;;;;;5054279;28;20227;-74
2022/01/23 03:11:00;;;;;;;7.43;6.40;;;4.80;99.90;;;;;;5053936;28;20177;-75
2022/01/23 03:24:26;;;;;;;6.57;4.40;;;4.80;99.90;;;;;;5053187;28;20235;-75
2022/01/23 03:34:20;;;;;;;11.33;7.57;;;4.80;99.90;;;;;;5053587;28;20209;-78
2022/01/23 03:36:45;;;;;;;9.67;8.10;;;4.80;99.90;;;;;;5051679;28;20640;-78
2022/01/23 03:39:11;;;;;;;8.23;4.70;;;4.70;99.90;;;;;;5053447;28;20201;-78
2022/01/23 03:41:40;;;;;;;5.53;3.33;;;4.80;99.90;;;;;;5052027;28;20583;-79
2022/01/23 03:44:09;;;;;;;8.13;7.43;;;4.80;99.90;;;;;;5054626;28;20226;-76
2022/01/23 03:49:32;;;;;;;6.43;5.83;;;4.70;99.90;;;;;;5053475;28;20272;-78
2022/01/23 03:52:17;;;;;;;4.10;3.83;;;4.70;99.90;;;;;;5052077;28;20521;-77
2022/01/23 03:54:43;;;;;;;6.30;5.80;;;4.70;99.90;;;;;;5051201;28;20613;-78
2022/01/23 03:57:09;;;;;;;33.13;10.17;;;4.70;99.90;;;;;;5052880;28;20197;-78
2022/01/23 03:59:35;;;;;;;6.23;5.80;;;4.70;99.90;;;;;;5053084;28;20264;-78
2022/01/23 04:02:03;;;;;;;6.00;5.50;;;4.70;99.90;;;;;;5052586;28;20579;-78
2022/01/23 04:07:18;;;;;;;23.70;7.27;;;4.70;99.90;;;;;;5052895;28;20208;-77
2022/01/23 04:09:44;;;;;;;1.90;1.80;;;4.70;99.90;;;;;;5053517;28;20169;-78
2022/01/23 04:12:21;;;;;;;5.30;4.53;;;4.70;99.90;;;;;;5053709;28;20180;-79
2022/01/23 04:14:52;;;;;;;6.47;5.93;;;4.70;99.90;;;;;;5051911;28;20664;-78
2022/01/23 04:48:05;;;;;;;6.20;5.80;;;4.70;99.90;;;;;;5072040;28;20269;-79
2022/01/23 05:01:01;;;;;;;8.03;7.27;;;4.70;99.90;;;;;;5072424;28;20214;-78
2022/01/23 05:06:20;;;;;;;7.40;6.23;;;4.70;99.90;;;;;;5071929;28;20219;-78
2022/01/23 05:08:46;;;;;;;6.13;5.27;;;4.70;99.90;;;;;;5072477;28;20569;-78
2022/01/23 05:11:12;;;;;;;6.47;6.00;;;4.70;99.90;;;;;;5072276;28;20168;-78
2022/01/23 05:13:38;;;;;;;7.30;4.93;;;4.70;99.90;;;;;;5071668;28;20208;-78
2022/01/23 05:16:04;;;;;;;12.30;7.23;;;4.70;99.90;;;;;;5072651;28;20694;-78
2022/01/23 05:18:32;;;;;;;10.03;9.23;;;4.70;99.90;;;;;;5073283;28;20601;-78
2022/01/23 05:21:43;;;;;;;7.77;5.13;;;4.70;99.90;;;;;;5073584;28;20176;-79
2022/01/23 05:24:03;;;;;;;5.30;4.90;;;4.70;99.90;;;;;;5072264;28;20222;-79
2022/01/23 05:26:29;;;;;;;6.33;5.73;;;4.70;99.90;;;;;;5072871;28;20253;-79
2022/01/23 05:28:54;;;;;;;11.03;5.40;;;4.70;99.90;;;;;;5054121;28;20172;-79
2022/01/23 05:31:20;;;;;;;6.83;4.57;;;4.70;99.90;;;;;;5071733;28;20202;-78
2022/01/23 05:33:45;;;;;;;5.37;4.97;;;4.70;99.90;;;;;;5053736;28;20177;-78
2022/01/23 05:36:11;;;;;;;7.47;4.27;;;4.70;99.90;;;;;;5070120;28;20195;-78
2022/01/23 05:38:36;;;;;;;10.63;5.13;;;4.70;99.90;;;;;;5070999;28;20184;-78
2022/01/23 05:41:02;;;;;;;34.50;5.17;;;4.70;99.90;;;;;;5071317;28;20176;-78
2022/01/23 05:43:28;;;;;;;8.07;5.73;;;4.70;99.90;;;;;;5052950;28;20656;-78
2022/01/23 05:45:53;;;;;;;5.70;5.30;;;4.70;99.90;;;;;;5071467;28;20212;-78
2022/01/23 05:48:19;;;;;;;3.57;3.37;;;4.70;99.90;;;;;;5053546;28;20191;-78
2022/01/23 05:50:46;;;;;;;5.67;5.33;;;4.60;99.90;;;;;;5071224;28;20176;-78
2022/01/23 05:53:12;;;;;;;10.30;5.07;;;4.70;99.90;;;;;;5053372;28;20642;-79
2022/01/23 05:55:38;;;;;;;6.43;6.00;;;4.70;99.90;;;;;;5071790;28;20211;-79
2022/01/23 05:58:04;;;;;;;20.40;5.27;;;4.70;99.90;;;;;;5071703;28;20629;-79
2022/01/23 06:00:30;;;;;;;22.17;7.90;;;4.70;99.90;;;;;;5073568;28;20176;-76
2022/01/23 06:02:55;;;;;;;5.73;5.33;;;4.70;99.90;;;;;;5071126;28;20553;-79
2022/01/23 06:05:21;;;;;;;4.07;3.67;;;4.80;99.90;;;;;;5069791;28;20231;-79
2022/01/23 06:07:48;;;;;;;7.93;5.80;;;4.80;99.90;;;;;;5071601;28;20169;-78
2022/01/23 06:10:22;;;;;;;3.20;2.93;;;4.70;99.90;;;;;;5071198;28;20192;-79
2022/01/23 06:12:48;;;;;;;8.03;6.67;;;4.80;99.90;;;;;;5053032;28;20180;-79
2022/01/23 06:15:15;;;;;;;6.80;4.97;;;4.80;99.90;;;;;;5071013;28;20219;-78
2022/01/23 06:17:42;;;;;;;8.07;7.50;;;4.80;99.90;;;;;;5071008;28;20176;-79
2022/01/23 06:20:09;;;;;;;5.50;5.00;;;4.80;99.90;;;;;;5071752;28;20180;-77
2022/01/23 06:22:35;;;;;;;8.33;4.83;;;4.80;99.90;;;;;;5070895;28;20173;-78
2022/01/23 06:25:03;;;;;;;3.63;3.20;;;4.80;99.90;;;;;;5053146;28;20180;-76
2022/01/23 06:27:29;;;;;;;4.83;3.97;;;4.80;99.90;;;;;;5071459;28;20184;-78
2022/01/23 06:29:55;;;;;;;7.37;6.73;;;4.70;99.90;;;;;;5056928;28;20180;-79
2022/01/23 06:32:20;;;;;;;7.23;5.40;;;4.70;99.90;;;;;;5074746;28;20247;-78
2022/01/23 06:34:46;;;;;;;4.40;4.03;;;4.70;99.90;;;;;;5074621;28;20248;-78
2022/01/23 06:37:12;;;;;;;11.80;4.67;;;4.70;99.90;;;;;;5074253;28;20224;-78
2022/01/23 06:39:38;;;;;;;18.77;5.73;;;4.70;99.90;;;;;;5056670;28;20227;-79
2022/01/23 06:42:04;;;;;;;10.23;6.60;;;4.70;99.90;;;;;;5056246;28;20180;-79
2022/01/23 06:44:29;;;;;;;10.17;5.63;;;4.70;99.90;;;;;;5074679;28;20184;-76
2022/01/23 06:46:55;;;;;;;4.97;4.60;;;4.70;99.90;;;;;;5074246;28;20575;-77
2022/01/23 06:49:21;;;;;;;5.33;4.63;;;4.70;99.90;;;;;;5074480;28;20168;-78
2022/01/23 06:51:48;;;;;;;5.80;3.60;;;4.70;99.90;;;;;;5073425;28;20178;-78
2022/01/23 06:54:14;;;;;;;8.33;5.33;;;4.70;99.90;;;;;;5074003;28;20598;-78
2022/01/23 06:56:40;;;;;;;5.87;5.37;;;4.70;99.90;;;;;;5055932;28;20257;-79
2022/01/23 06:59:05;;;;;;;5.87;5.30;;;4.70;99.90;;;;;;5074034;28;20187;-79
2022/01/23 07:01:31;;;;;;;9.33;7.73;;;4.60;99.90;;;;;;5074680;28;20188;-78
2022/01/23 07:03:57;;;;;;;3.23;1.80;;;4.50;99.90;;;;;;5058353;28;20598;-78
2022/01/23 07:06:22;;;;;;;4.60;4.27;;;4.50;99.90;;;;;;5076038;28;20695;-79
2022/01/23 07:08:48;;;;;;;6.37;5.30;;;4.50;99.90;;;;;;5079427;28;20179;-79
2022/01/23 07:11:13;;;;;;;5.03;4.70;;;4.50;99.90;;;;;;5079571;28;20186;-79
2022/01/23 07:13:39;;;;;;;5.43;4.97;;;4.50;99.90;;;;;;5080633;28;20559;-79
2022/01/23 07:16:06;;;;;;;5.03;4.13;;;4.60;99.90;;;;;;5079278;28;20258;-79
2022/01/23 07:18:32;;;;;;;8.73;3.20;;;4.60;99.90;;;;;;5079728;28;20177;-79
2022/01/23 07:20:57;;;;;;;3.73;3.53;;;4.50;99.90;;;;;;5078625;28;20180;-78
2022/01/23 07:23:23;;;;;;;6.33;5.00;;;4.50;99.90;;;;;;5079554;28;20299;-79
2022/01/23 07:25:50;;;;;;;17.67;11.17;;;4.50;99.90;;;;;;5077783;28;20212;-78
2022/01/23 07:28:19;;;;;;;3.83;3.17;;;4.50;99.90;;;;;;5062274;28;20176;-79
2022/01/23 07:30:53;;;;;;;7.67;5.83;;;4.50;99.90;;;;;;5063199;28;20183;-79
2022/01/23 07:33:19;;;;;;;5.03;4.53;;;4.50;99.90;;;;;;5064761;28;20223;-79
2022/01/23 07:35:45;;;;;;;9.53;5.07;;;4.50;99.90;;;;;;5080771;28;20204;-79
2022/01/23 07:38:14;;;;;;;4.17;3.80;;;4.60;99.90;;;;;;5085582;28;20180;-79
2022/01/23 07:40:39;;;;;;;9.60;6.23;;;4.60;99.90;;;;;;5064111;28;20655;-79
2022/01/23 07:43:05;;;;;;;7.37;4.13;;;4.70;99.90;;;;;;5078876;28;20184;-79
2022/01/23 07:45:30;;;;;;;10.67;8.33;;;4.70;99.90;;;;;;5075358;28;20208;-78
2022/01/23 07:47:56;;;;;;;9.10;5.53;;;4.70;99.90;;;;;;5073994;28;20176;-79
2022/01/23 07:50:22;;;;;;;3.03;2.83;;;4.70;99.90;;;;;;5073619;28;20207;-79
2022/01/23 07:52:47;;;;;;;4.17;3.87;;;4.70;99.90;;;;;;5074329;28;20211;-79
2022/01/23 07:55:15;;;;;;;7.90;7.07;;;4.70;99.90;;;;;;5075332;28;20270;-80
2022/01/23 07:57:42;;;;;;;3.30;3.10;;;4.70;99.90;;;;;;5074170;28;20250;-79
2022/01/23 08:00:10;;;;;;;4.67;4.37;;;4.70;99.90;;;;;;5059412;28;20179;-79
2022/01/23 08:02:35;;;;;;;5.03;3.97;;;4.70;99.90;;;;;;5077072;28;20183;-79
2022/01/23 08:05:01;;;;;;;5.80;4.23;;;4.70;99.90;;;;;;5074711;28;20177;-76
2022/01/23 08:09:58;;;;;;;7.43;6.90;;;4.70;99.90;;;;;;5074994;28;20172;-78
2022/01/23 08:12:28;;;;;;;6.97;6.37;;;4.70;99.90;;;;;;5074983;28;20192;-78
2022/01/23 08:14:55;;;;;;;7.83;4.60;;;4.70;99.90;;;;;;5078764;28;20173;-78
2022/01/23 08:17:24;;;;;;;17.27;8.17;;;4.80;99.90;;;;;;5078005;28;20204;-80
2022/01/23 08:19:58;;;;;;;6.93;5.63;;;4.80;99.90;;;;;;5060402;28;20188;-80
2022/01/23 08:22:25;;;;;;;2.00;1.77;;;4.70;99.90;;;;;;5077960;28;20172;-80
2022/01/23 08:24:51;;;;;;;5.77;4.80;;;4.80;99.90;;;;;;5078727;28;20172;-80
2022/01/23 08:27:19;;;;;;;13.50;9.03;;;4.80;99.90;;;;;;5077468;28;20212;-80
2022/01/23 08:29:44;;;;;;;2.97;2.80;;;4.70;99.90;;;;;;5057385;28;20173;-79
2022/01/23 08:32:11;;;;;;;5.20;4.57;;;4.70;99.90;;;;;;5075836;28;20187;-78
2022/01/23 08:34:38;;;;;;;4.77;4.30;;;4.80;99.90;;;;;;5074831;28;20671;-79
2022/01/23 08:37:05;;;;;;;7.10;6.40;;;4.80;99.90;;;;;;5072916;28;20203;-78
2022/01/23 08:39:34;;;;;;;4.53;4.17;;;4.80;99.90;;;;;;5054396;28;20533;-78
2022/01/23 08:42:02;;;;;;;11.47;6.00;;;4.80;99.90;;;;;;5072523;28;20187;-78
2022/01/23 08:44:28;;;;;;;8.80;7.10;;;4.70;99.90;;;;;;5074639;28;20180;-79
2022/01/23 08:46:54;;;;;;;2.90;2.70;;;4.80;99.90;;;;;;5054160;28;20211;-78
2022/01/23 08:49:21;;;;;;;5.10;3.40;;;4.90;99.90;;;;;;5072406;28;20196;-79
2022/01/23 08:51:48;;;;;;;7.23;5.53;;;4.90;99.90;;;;;;5054715;28;20274;-79
2022/01/23 08:54:15;;;;;;;15.47;9.23;;;4.90;99.90;;;;;;5073029;28;20232;-79
2022/01/23 08:56:41;;;;;;;23.33;4.93;;;4.90;99.90;;;;;;5073660;28;20196;-79
2022/01/23 08:59:07;;;;;;;4.37;3.57;;;4.80;99.90;;;;;;5074089;28;20172;-79
2022/01/23 09:01:33;;;;;;;2.60;2.40;;;4.90;99.90;;;;;;5062150;28;20190;-79
2022/01/23 09:03:59;;;;;;;7.43;6.83;;;4.90;99.90;;;;;;5072970;28;20176;-79
2022/01/23 09:06:25;;;;;;;7.43;3.87;;;5.00;99.90;;;;;;5070624;28;20299;-79
2022/01/23 09:08:52;;;;;;;8.30;4.07;;;5.00;99.90;;;;;;5055835;28;20226;-80
2022/01/23 09:11:26;;;;;;;5.10;4.10;;;5.10;99.90;;;;;;5073183;28;20172;-79
2022/01/23 09:16:20;;;;;;;6.90;6.37;;;5.00;99.90;;;;;;5060048;28;20196;-79
2022/01/23 09:18:46;;;;;;;6.07;5.27;;;5.00;99.90;;;;;;5055733;28;20180;-79
2022/01/23 09:21:12;;;;;;;11.43;6.70;;;5.00;99.90;;;;;;5073817;28;20188;-79
2022/01/23 09:23:37;;;;;;;3.80;3.50;;;5.00;99.90;;;;;;5073236;28;20186;-79
2022/01/23 09:26:08;;;;;;;4.13;3.83;;;5.10;99.90;;;;;;5085881;22;20220;-76
2022/01/23 09:28:35;;;;;;;12.77;5.93;;;5.10;99.90;;;;;;5070856;28;20211;-75
2022/01/23 09:31:01;;;;;;;5.77;5.33;;;5.20;99.90;;;;;;5071056;28;20175;-75
2022/01/23 09:33:28;;;;;;;6.60;5.33;;;5.30;99.90;;;;;;5070714;28;20176;-75
2022/01/23 09:35:53;;;;;;;6.00;5.43;;;5.30;99.90;;;;;;5070940;28;20275;-75
2022/01/23 09:38:20;;;;;;;11.47;8.47;;;5.30;99.90;;;;;;5070714;28;20628;-75
2022/01/23 09:40:50;;;;;;;9.13;6.37;;;5.30;99.90;;;;;;5071269;28;20200;-75
2022/01/23 09:43:19;;;;;;;11.93;7.13;;;5.40;99.90;;;;;;5052371;28;20187;-75
2022/01/23 09:45:50;;;;;;;7.27;3.17;;;5.30;99.90;;;;;;5070869;28;20200;-76
2022/01/23 09:48:17;;;;;;;2.67;2.57;;;5.30;99.90;;;;;;5070748;28;20656;-75
2022/01/23 09:50:45;;;;;;;12.20;6.93;;;5.30;99.90;;;;;;5070841;28;20199;-75
2022/01/23 09:53:12;;;;;;;9.10;6.97;;;5.30;99.90;;;;;;5070171;28;20172;-75
2022/01/23 09:55:40;;;;;;;7.40;6.77;;;5.30;99.90;;;;;;5070633;28;20220;-74
2022/01/23 09:58:06;;;;;;;12.20;8.73;;;5.30;99.90;;;;;;5066553;28;20203;-75
2022/01/23 10:00:33;;;;;;;10.97;8.60;;;5.30;99.90;;;;;;5057154;28;21072;-75
2022/01/23 10:02:59;;;;;;;7.57;6.87;;;5.40;99.90;;;;;;5037507;28;20647;-75
2022/01/23 10:05:26;;;;;;;10.33;6.10;;;5.40;99.90;;;;;;5053954;28;20617;-75
2022/01/23 10:07:52;;;;;;;6.23;4.23;;;5.40;99.90;;;;;;5074452;28;20188;-75
2022/01/23 10:10:23;;;;;;;3.40;3.13;;;5.50;99.90;;;;;;5074423;28;20169;-75
2022/01/23 10:12:52;;;;;;;12.00;10.03;;;5.50;99.90;;;;;;5073901;28;20267;-75
2022/01/23 10:15:20;;;;;;;6.53;6.00;;;5.60;99.90;;;;;;5074430;28;20172;-75
2022/01/23 10:17:47;;;;;;;10.63;6.00;;;5.60;99.90;;;;;;5073916;28;20211;-75
2022/01/23 10:20:14;;;;;;;9.67;4.33;;;5.60;99.90;;;;;;5074199;28;20223;-75
2022/01/23 10:22:43;;;;;;;4.47;4.13;;;5.60;99.90;;;;;;5073836;28;20671;-75
2022/01/23 10:25:10;;;;;;;7.50;7.00;;;5.60;99.90;;;;;;5074239;28;20181;-75
2022/01/23 10:27:54;;;;;;;7.47;5.80;;;5.60;99.90;;;;;;5073973;28;20220;-75
2022/01/23 10:30:24;;;;;;;4.97;4.57;;;5.60;99.90;;;;;;5073871;28;20172;-75
2022/01/23 10:33:03;;;;;;;10.07;5.27;;;5.60;99.90;;;;;;5073868;28;20172;-75
2022/01/23 10:35:29;;;;;;;7.57;4.37;;;5.60;99.90;;;;;;5072384;28;20535;-75
2022/01/23 10:37:55;;;;;;;17.30;6.73;;;5.70;99.90;;;;;;5073281;28;20176;-75
2022/01/23 10:40:21;;;;;;;5.07;4.73;;;5.70;99.90;;;;;;5073162;28;20172;-75
2022/01/23 10:46:35;;;;;;;10.57;6.23;;;5.70;99.90;;;;;;5073334;28;20173;-75
2022/01/23 10:48:46;;;;;;;6.23;3.33;;;5.70;99.90;;;;;;5073578;28;20202;-75
2022/01/23 10:51:30;;;;;;;2.57;2.47;;;5.70;99.90;;;;;;5073349;28;20189;-75
2022/01/23 10:54:02;;;;;;;9.77;6.10;;;5.70;99.90;;;;;;5055799;28;20227;-75
2022/01/23 10:56:34;;;;;;;6.77;6.20;;;5.70;99.90;;;;;;5073431;28;20192;-75
2022/01/23 10:59:07;;;;;;;8.10;4.53;;;5.70;99.90;;;;;;5073652;28;20287;-75
2022/01/23 11:01:33;;;;;;;6.00;4.53;;;5.70;99.90;;;;;;5072844;28;20208;-75
2022/01/23 11:04:11;;;;;;;6.83;6.43;;;5.70;99.90;;;;;;5073533;28;20686;-75
2022/01/23 11:06:57;;;;;;;9.00;3.63;;;5.80;99.90;;;;;;5059902;28;20242;-75
2022/01/23 11:09:31;;;;;;;6.33;5.77;;;5.70;99.90;;;;;;5073176;28;20176;-75
2022/01/23 11:12:13;;;;;;;4.67;4.27;;;5.70;99.90;;;;;;5055027;28;20229;-75
2022/01/23 11:17:26;;;;;;;5.27;4.90;;;5.70;99.90;;;;;;5073411;28;20222;-75
2022/01/23 11:20:01;;;;;;;12.37;6.77;;;5.60;99.90;;;;;;5073523;28;20539;-75
2022/01/23 11:22:35;;;;;;;9.63;7.27;;;5.70;99.90;;;;;;5072545;28;20164;-74
2022/01/23 11:25:10;;;;;;;12.53;7.77;;;5.70;99.90;;;;;;5073403;28;20190;-75
2022/01/23 11:27:39;;;;;;;4.63;2.27;;;5.70;99.90;;;;;;5072873;28;20583;-74
2022/01/23 11:30:05;;;;;;;3.10;3.00;;;5.70;99.90;;;;;;5072983;28;20187;-75
2022/01/23 11:32:37;;;;;;;5.43;5.00;;;5.80;99.90;;;;;;5072727;28;20267;-75
2022/01/23 11:35:08;;;;;;;3.77;3.47;;;5.80;99.90;;;;;;5072372;28;20168;-75
2022/01/23 11:37:35;;;;;;;11.97;5.87;;;5.80;99.90;;;;;;5037073;28;20200;-75
2022/01/23 11:40:10;;;;;;;5.70;5.20;;;5.80;99.90;;;;;;5057966;28;20189;-74
2022/01/23 11:51:20;;;;;;;9.20;4.83;;;5.90;99.90;;;;;;5058674;28;20598;-74
2022/01/23 11:53:54;;;;;;;8.03;3.93;;;5.90;99.90;;;;;;5038043;28;20216;-75
2022/01/23 11:56:26;;;;;;;7.00;6.33;;;5.80;99.90;;;;;;5033312;28;20204;-74
2022/01/23 11:58:55;;;;;;;3.43;3.17;;;5.90;99.90;;;;;;5058942;28;20181;-74
2022/01/23 12:01:26;;;;;;;9.57;5.40;;;5.90;99.90;;;;;;5058281;28;20200;-74
2022/01/23 12:04:14;;;;;;;6.80;3.67;;;5.90;99.90;;;;;;5052864;28;20180;-75
2022/01/23 12:06:50;;;;;;;8.27;7.53;;;6.00;99.90;;;;;;5054232;28;20236;-75
2022/01/23 12:09:19;;;;;;;7.03;4.93;;;6.10;99.90;;;;;;5055715;28;20173;-75
2022/01/23 12:12:04;;;;;;;5.43;4.30;;;6.10;99.90;;;;;;5059747;28;20172;-75
2022/01/23 12:17:05;;;;;;;10.53;7.10;;;6.00;99.90;;;;;;5058286;28;20203;-75
2022/01/23 12:19:32;;;;;;;10.10;6.90;;;6.00;99.90;;;;;;5056254;28;20854;-76
2022/01/23 12:22:20;;;;;;;7.90;5.87;;;6.00;99.90;;;;;;5049643;28;20191;-76
2022/01/23 12:24:50;;;;;;;6.43;5.80;;;6.10;99.90;;;;;;5038292;28;20230;-75
2022/01/23 12:27:27;;;;;;;6.70;5.53;;;6.20;99.90;;;;;;5058448;28;20223;-75
2022/01/23 12:29:55;;;;;;;6.90;5.30;;;6.20;99.90;;;;;;5059622;28;20173;-75
2022/01/23 12:32:29;;;;;;;5.07;3.63;;;6.20;99.90;;;;;;5058793;28;20635;-75
2022/01/23 12:34:57;;;;;;;4.80;2.97;;;6.20;99.90;;;;;;5059836;28;20204;-75
2022/01/23 12:37:24;;;;;;;3.97;3.63;;;6.20;99.90;;;;;;5036907;28;20204;-75
2022/01/23 12:40:21;;;;;;;19.03;5.87;;;6.20;99.90;;;;;;5052633;28;20549;-75
2022/01/23 12:43:08;;;;;;;8.57;7.83;;;6.20;99.90;;;;;;5042636;28;20238;-75
2022/01/23 12:45:52;;;;;;;10.00;5.90;;;6.10;99.90;;;;;;5058388;28;20196;-75
2022/01/23 12:48:29;;;;;;;4.00;3.80;;;6.10;99.90;;;;;;5058337;28;20639;-75
2022/01/23 12:51:01;;;;;;;3.83;3.60;;;6.10;99.90;;;;;;5052089;28;20319;-76
2022/01/23 12:53:48;;;;;;;9.20;5.47;;;6.20;99.90;;;;;;5070988;28;20333;-75
2022/01/23 12:56:14;;;;;;;5.20;4.70;;;6.20;99.90;;;;;;5053374;28;20548;-75
2022/01/23 12:58:41;;;;;;;6.40;4.97;;;6.20;99.90;;;;;;5071226;28;20281;-75
2022/01/23 13:01:15;;;;;;;9.47;5.40;;;6.20;99.90;;;;;;5071438;28;20205;-75
2022/01/23 13:03:43;;;;;;;8.97;8.17;;;6.30;99.90;;;;;;5070979;28;20258;-75
2022/01/23 13:06:11;;;;;;;7.80;3.90;;;6.30;99.90;;;;;;5066199;28;20330;-75
2022/01/23 13:08:47;;;;;;;5.13;4.63;;;6.40;99.90;;;;;;5053155;28;20259;-75
2022/01/23 13:14:01;;;;;;;7.27;4.50;;;6.50;99.90;;;;;;5071242;28;20595;-75
2022/01/23 13:16:37;;;;;;;6.87;5.03;;;6.50;99.90;;;;;;5052646;28;20196;-75
2022/01/23 13:26:30;;;;;;;4.33;3.97;;;6.40;99.90;;;;;;5071196;28;20253;-75
2022/01/23 13:32:45;;;;;;;4.77;4.47;;;6.60;99.90;;;;;;5070564;28;20180;-76
2022/01/23 13:35:14;;;;;;;4.83;4.17;;;6.60;99.90;;;;;;5071000;28;20270;-75
2022/01/23 13:37:55;;;;;;;7.70;7.00;;;6.60;99.90;;;;;;5069909;28;20609;-75
2022/01/23 13:40:27;;;;;;;5.67;3.57;;;6.60;99.90;;;;;;5074914;28;20271;-75
2022/01/23 13:53:38;;;;;;;4.30;4.10;;;6.50;99.90;;;;;;5074531;28;20267;-76
2022/01/23 14:04:45;;;;;;;5.80;4.63;;;6.40;99.90;;;;;;5074489;28;20303;-75
2022/01/23 14:07:11;;;;;;;6.87;5.67;;;6.40;99.90;;;;;;5074319;28;20212;-75
2022/01/23 14:09:44;;;;;;;1.90;1.80;;;6.40;99.90;;;;;;5074877;28;20183;-75
2022/01/23 14:12:13;;;;;;;2.20;2.10;;;6.30;99.90;;;;;;5074194;28;20291;-75
2022/01/23 14:14:57;;;;;;;2.40;2.23;;;6.30;99.90;;;;;;5074230;28;20188;-75
2022/01/23 14:17:28;;;;;;;3.93;3.63;;;6.30;99.90;;;;;;5074219;28;20330;-75
2022/01/23 14:20:03;;;;;;;6.83;6.37;;;6.30;99.90;;;;;;5056364;28;20207;-75
2022/01/23 14:22:32;;;;;;;7.87;4.83;;;6.30;99.90;;;;;;5073839;28;20183;-75
2022/01/23 14:25:24;;;;;;;2.47;2.27;;;6.30;99.90;;;;;;5074357;28;20187;-75
2022/01/23 14:28:14;;;;;;;1.77;1.63;;;6.20;99.90;;;;;;5073975;28;20207;-75
2022/01/23 14:30:49;;;;;;;2.90;2.70;;;6.20;99.90;;;;;;5074015;28;20177;-75
2022/01/23 14:33:23;;;;;;;2.27;2.17;;;6.20;99.90;;;;;;5074387;28;20184;-75
2022/01/23 14:35:49;;;;;;;1.87;1.77;;;6.20;99.90;;;;;;5060773;28;20204;-75
2022/01/23 14:38:22;;;;;;;3.37;3.03;;;6.20;99.90;;;;;;5055611;28;20188;-75
2022/01/23 14:41:03;;;;;;;4.40;3.87;;;6.20;99.90;;;;;;5074934;28;20540;-76
2022/01/23 14:43:41;;;;;;;4.17;3.70;;;6.20;99.90;;;;;;5073428;28;20616;-75
2022/01/23 14:46:08;;;;;;;5.83;5.17;;;6.20;99.90;;;;;;5073717;28;20219;-75
2022/01/23 14:48:40;;;;;;;5.00;4.60;;;6.20;99.90;;;;;;5072746;28;20203;-75
2022/01/23 14:51:06;;;;;;;6.17;3.73;;;6.20;99.90;;;;;;5074186;28;20175;-75
2022/01/23 14:53:35;;;;;;;8.10;5.00;;;6.20;99.90;;;;;;5070665;28;20185;-75
2022/01/23 14:56:03;;;;;;;3.73;3.53;;;6.10;99.90;;;;;;5073515;28;20682;-75
2022/01/23 14:58:31;;;;;;;5.53;4.47;;;6.20;99.90;;;;;;5055343;28;20651;-75
2022/01/23 15:00:57;;;;;;;4.33;2.83;;;6.10;99.90;;;;;;5073465;28;20184;-75
2022/01/23 15:03:23;;;;;;;11.87;4.97;;;6.10;99.90;;;;;;5073045;28;20594;-75
2022/01/23 15:05:50;;;;;;;5.63;2.90;;;6.10;99.90;;;;;;5073758;28;20208;-76
2022/01/23 15:08:20;;;;;;;4.63;3.77;;;6.10;99.90;;;;;;5055754;28;20212;-76
2022/01/23 15:10:46;;;;;;;8.93;6.73;;;6.10;99.90;;;;;;5055497;28;20199;-77
2022/01/23 15:13:12;;;;;;;5.70;4.73;;;6.10;99.90;;;;;;5073402;28;20243;-76
2022/01/23 15:15:38;;;;;;;7.87;3.93;;;6.10;99.90;;;;;;5072705;28;20169;-76
2022/01/23 15:18:04;;;;;;;5.00;4.50;;;6.10;99.90;;;;;;5073605;28;20898;-75
2022/01/23 15:20:33;;;;;;;5.10;4.73;;;6.00;99.90;;;;;;5073092;28;20594;-76
2022/01/23 15:23:00;;;;;;;10.03;5.43;;;6.00;99.90;;;;;;5073117;28;20651;-76
2022/01/23 15:25:26;;;;;;;7.47;3.43;;;6.10;99.90;;;;;;5073037;28;20226;-76
2022/01/23 15:27:52;;;;;;;4.83;4.43;;;6.10;99.90;;;;;;5089648;22;20232;-80
2022/01/23 15:30:21;;;;;;;4.83;3.57;;;6.00;99.90;;;;;;5092056;28;20258;-79
2022/01/23 15:32:47;;;;;;;11.07;5.27;;;6.00;99.90;;;;;;5096396;28;20179;-79
2022/01/23 15:35:14;;;;;;;3.37;2.90;;;5.90;99.90;;;;;;5097068;28;20179;-80
2022/01/23 15:37:40;;;;;;;7.30;6.70;;;5.90;99.90;;;;;;5074730;28;20196;-79
2022/01/23 15:40:11;;;;;;;8.97;4.27;;;5.90;99.90;;;;;;5074223;28;20179;-79
2022/01/23 15:42:39;;;;;;;6.17;4.93;;;5.90;99.90;;;;;;5096117;28;20184;-78
2022/01/23 15:45:05;;;;;;;15.53;7.30;;;5.90;99.90;;;;;;5096543;28;20190;-79
2022/01/23 15:47:31;;;;;;;11.20;5.17;;;5.90;99.90;;;;;;5086427;28;20220;-80
2022/01/23 15:49:57;;;;;;;6.03;5.50;;;5.90;99.90;;;;;;5058740;28;20176;-80
2022/01/23 15:52:22;;;;;;;6.83;6.00;;;5.80;99.90;;;;;;5076146;28;20173;-79
2022/01/23 15:54:48;;;;;;;8.80;7.30;;;5.80;99.90;;;;;;5085419;28;20180;-79
2022/01/23 15:57:14;;;;;;;5.93;5.47;;;5.80;99.90;;;;;;5101221;28;20203;-79
2022/01/23 15:59:40;;;;;;;6.80;6.20;;;5.70;99.90;;;;;;5071687;28;20187;-79
2022/01/23 16:02:10;;;;;;;8.53;6.70;;;5.70;99.90;;;;;;5077414;28;20187;-78
2022/01/23 16:04:38;;;;;;;3.87;3.53;;;5.70;99.90;;;;;;5068376;28;20179;-79
2022/01/23 16:07:05;;;;;;;9.70;5.23;;;5.70;99.90;;;;;;5078182;28;20256;-79
2022/01/23 16:09:31;;;;;;;7.63;6.00;;;5.80;99.90;;;;;;5087297;28;20246;-77
2022/01/23 16:11:57;;;;;;;5.43;2.60;;;5.70;99.90;;;;;;5092354;28;20276;-79
2022/01/23 16:14:22;;;;;;;15.23;8.77;;;5.70;99.90;;;;;;5091541;28;20164;-79
2022/01/23 16:16:48;;;;;;;8.97;3.23;;;5.80;99.90;;;;;;5074946;28;20200;-79
2022/01/23 16:19:15;;;;;;;5.43;4.47;;;5.70;99.90;;;;;;5076459;28;20164;-79
2022/01/23 16:21:41;;;;;;;4.80;3.93;;;5.70;99.90;;;;;;5076574;28;20758;-79
2022/01/23 16:24:07;;;;;;;7.73;7.10;;;5.70;99.90;;;;;;5077361;28;20251;-79
2022/01/23 16:26:33;;;;;;;10.83;8.23;;;5.70;99.90;;;;;;5081159;28;20212;-79
2022/01/23 16:28:59;;;;;;;6.03;5.37;;;5.70;99.90;;;;;;5096259;28;20175;-79